createdAt,value
2023-03-10T00:00:05.725Z,8.10
2023-03-10T00:02:34.914Z,8.10
2023-03-10T00:05:03.828Z,7.90
2023-03-10T00:07:31.849Z,8.00
2023-03-10T00:09:59.695Z,8.00
2023-03-10T00:12:27.825Z,7.90
2023-03-10T00:14:56.371Z,7.90
2023-03-10T00:17:25.521Z,7.90
2023-03-10T00:19:53.428Z,7.90
2023-03-10T00:22:21.406Z,7.90
2023-03-10T00:24:50.362Z,7.90
2023-03-10T00:27:18.155Z,7.90
2023-03-10T00:29:46.000Z,7.80
2023-03-10T00:32:13.832Z,7.90
2023-03-10T00:34:43.103Z,7.80
2023-03-10T00:37:13.282Z,7.70
2023-03-10T00:39:41.954Z,7.70
2023-03-10T00:42:09.841Z,7.70
2023-03-10T00:44:37.958Z,7.70
2023-03-10T00:47:05.963Z,7.70
2023-03-10T00:49:33.885Z,7.60
2023-03-10T00:52:03.068Z,7.80
2023-03-10T00:54:30.840Z,7.70
2023-03-10T00:56:58.704Z,7.60
2023-03-10T00:59:27.358Z,7.50
2023-03-10T01:01:55.361Z,7.50
2023-03-10T01:04:23.270Z,7.50
2023-03-10T01:06:51.048Z,7.60
2023-03-10T01:09:20.215Z,7.50
2023-03-10T01:11:49.022Z,7.40
2023-03-10T01:14:17.523Z,7.30
2023-03-10T01:16:45.448Z,7.30
2023-03-10T01:19:13.210Z,7.30
2023-03-10T01:21:41.648Z,7.30
2023-03-10T01:24:14.928Z,7.40
2023-03-10T01:26:44.162Z,7.40
2023-03-10T01:29:11.925Z,7.40
2023-03-10T01:31:41.778Z,7.40
2023-03-10T01:34:09.706Z,7.30
2023-03-10T01:36:37.570Z,7.30
2023-03-10T01:39:05.462Z,7.20
2023-03-10T01:41:33.298Z,7.30
2023-03-10T01:44:04.746Z,7.20
2023-03-10T01:46:45.029Z,7.20
2023-03-10T01:49:18.659Z,7.30
2023-03-10T01:51:51.573Z,7.30
2023-03-10T01:54:23.764Z,7.10
2023-03-10T01:56:53.890Z,7.10
2023-03-10T01:59:24.582Z,7.20
2023-03-10T02:01:53.694Z,7.10
2023-03-10T02:04:28.581Z,7.10
2023-03-10T02:06:57.635Z,7.10
2023-03-10T02:09:26.691Z,7.00
2023-03-10T02:11:56.164Z,6.90
2023-03-10T02:14:25.441Z,7.10
2023-03-10T02:16:53.286Z,7.20
2023-03-10T02:19:36.901Z,7.20
2023-03-10T02:22:07.780Z,7.20
2023-03-10T02:24:44.055Z,7.10
2023-03-10T02:27:17.124Z,6.90
2023-03-10T02:29:58.925Z,6.80
2023-03-10T02:32:29.507Z,6.80
2023-03-10T02:34:57.468Z,6.90
2023-03-10T02:37:29.862Z,6.90
2023-03-10T02:39:58.254Z,6.90
2023-03-10T02:42:31.792Z,7.10
2023-03-10T02:44:59.877Z,6.80
2023-03-10T02:47:30.690Z,6.60
2023-03-10T02:49:58.498Z,6.40
2023-03-10T02:52:32.793Z,6.60
2023-03-10T02:55:00.619Z,6.50
2023-03-10T02:57:29.696Z,6.40
2023-03-10T02:59:57.544Z,6.50
2023-03-10T03:02:25.358Z,6.60
2023-03-10T03:04:53.270Z,6.60
2023-03-10T03:07:21.060Z,6.50
2023-03-10T03:09:48.856Z,6.50
2023-03-10T03:12:16.700Z,6.80
2023-03-10T03:14:45.891Z,6.80
2023-03-10T03:17:13.818Z,6.80
2023-03-10T03:19:41.688Z,6.80
2023-03-10T03:22:09.513Z,6.70
2023-03-10T03:24:37.388Z,6.80
2023-03-10T03:27:06.236Z,7.00
2023-03-10T03:29:34.152Z,6.80
2023-03-10T03:32:03.505Z,6.60
2023-03-10T03:34:31.455Z,6.70
2023-03-10T03:36:59.247Z,6.80
2023-03-10T03:39:27.260Z,6.60
2023-03-10T03:41:57.210Z,6.70
2023-03-10T03:44:25.110Z,6.80
2023-03-10T03:46:52.960Z,6.90
2023-03-10T03:49:22.162Z,6.90
2023-03-10T03:51:50.005Z,6.90
2023-03-10T03:54:17.851Z,6.70
2023-03-10T03:56:45.742Z,6.80
2023-03-10T03:59:13.707Z,6.90
2023-03-10T04:01:41.514Z,6.80
2023-03-10T04:04:09.435Z,6.60
2023-03-10T04:06:38.740Z,6.90
2023-03-10T04:09:06.628Z,6.80
2023-03-10T04:11:34.479Z,6.90
2023-03-10T04:14:02.362Z,6.90
2023-03-10T04:16:30.124Z,7.00
2023-03-10T04:18:57.856Z,7.00
2023-03-10T04:21:25.652Z,7.00
2023-03-10T04:23:54.849Z,7.00
2023-03-10T04:26:22.714Z,6.90
2023-03-10T04:28:50.884Z,6.90
2023-03-10T04:31:19.999Z,6.90
2023-03-10T04:33:48.016Z,6.90
2023-03-10T04:36:16.309Z,6.90
2023-03-10T04:38:44.112Z,6.90
2023-03-10T04:41:13.983Z,7.00
2023-03-10T04:43:43.279Z,7.10
2023-03-10T04:46:12.172Z,7.10
2023-03-10T04:48:40.517Z,7.10
2023-03-10T04:51:10.539Z,7.10
2023-03-10T04:53:38.716Z,7.10
2023-03-10T04:56:11.362Z,7.20
2023-03-10T04:58:40.806Z,7.20
2023-03-10T05:01:10.882Z,7.20
2023-03-10T05:03:38.787Z,7.20
2023-03-10T05:06:11.956Z,7.20
2023-03-10T05:08:39.906Z,7.20
2023-03-10T05:11:08.393Z,7.20
2023-03-10T05:13:36.506Z,7.30
2023-03-10T05:16:06.257Z,7.20
2023-03-10T05:18:34.111Z,7.20
2023-03-10T05:21:01.965Z,7.20
2023-03-10T05:23:29.748Z,7.30
2023-03-10T05:25:57.581Z,7.30
2023-03-10T05:28:25.553Z,7.20
2023-03-10T05:30:53.431Z,7.20
2023-03-10T05:33:22.623Z,7.20
2023-03-10T05:35:50.733Z,7.20
2023-03-10T05:38:19.119Z,7.20
2023-03-10T05:40:46.969Z,7.30
2023-03-10T05:43:17.559Z,7.30
2023-03-10T05:45:45.459Z,7.30
2023-03-10T05:48:13.279Z,7.30
2023-03-10T05:50:42.497Z,7.30
2023-03-10T05:53:10.307Z,7.30
2023-03-10T05:55:38.376Z,7.20
2023-03-10T05:58:06.300Z,7.40
2023-03-10T06:00:34.080Z,7.30
2023-03-10T06:03:02.877Z,7.30
2023-03-10T06:05:30.760Z,7.30
2023-03-10T06:07:59.958Z,7.20
2023-03-10T06:10:27.765Z,7.30
2023-03-10T06:12:56.332Z,7.30
2023-03-10T06:15:24.374Z,7.30
2023-03-10T06:17:52.241Z,7.30
2023-03-10T06:20:20.164Z,7.40
2023-03-10T06:22:48.022Z,7.30
2023-03-10T06:25:17.343Z,7.40
2023-03-10T06:27:45.101Z,7.40
2023-03-10T06:30:13.584Z,7.40
2023-03-10T06:32:41.652Z,7.50
2023-03-10T06:35:11.692Z,7.40
2023-03-10T06:37:39.550Z,7.40
2023-03-10T06:40:10.033Z,7.40
2023-03-10T06:42:39.573Z,7.40
2023-03-10T06:45:09.031Z,7.30
2023-03-10T06:47:37.141Z,7.40
2023-03-10T06:50:06.082Z,7.40
2023-03-10T06:52:34.431Z,7.40
2023-03-10T06:55:02.490Z,7.50
2023-03-10T06:57:30.595Z,7.60
2023-03-10T06:59:59.763Z,7.60
2023-03-10T07:02:27.626Z,7.70
2023-03-10T07:04:55.608Z,7.80
2023-03-10T07:07:23.419Z,7.80
2023-03-10T07:09:51.248Z,7.90
2023-03-10T07:12:19.048Z,7.80
2023-03-10T07:14:46.832Z,7.90
2023-03-10T07:17:16.020Z,7.90
2023-03-10T07:19:44.169Z,8.00
2023-03-10T07:22:12.010Z,8.00
2023-03-10T07:24:42.230Z,8.00
2023-03-10T07:27:10.416Z,8.10
2023-03-10T07:29:38.233Z,8.20
2023-03-10T07:32:06.843Z,8.50
2023-03-10T07:34:36.046Z,8.40
2023-03-10T07:37:03.928Z,8.30
2023-03-10T07:39:31.719Z,8.40
2023-03-10T07:42:00.057Z,8.40
2023-03-10T07:44:27.894Z,8.30
2023-03-10T07:46:55.867Z,8.30
2023-03-10T07:49:23.631Z,8.30
2023-03-10T07:51:52.781Z,8.40
2023-03-10T07:54:20.587Z,8.70
2023-03-10T07:56:50.704Z,8.60
2023-03-10T07:59:19.145Z,8.50
2023-03-10T08:01:46.942Z,8.40
2023-03-10T08:04:14.859Z,8.50
2023-03-10T08:06:42.695Z,8.60
2023-03-10T08:09:11.810Z,9.00
2023-03-10T08:11:39.630Z,8.90
2023-03-10T08:14:07.439Z,8.90
2023-03-10T08:16:35.644Z,8.90
2023-03-10T08:19:03.468Z,9.00
2023-03-10T08:21:31.328Z,9.30
2023-03-10T08:23:59.098Z,9.50
2023-03-10T08:26:28.362Z,9.50
2023-03-10T08:28:56.243Z,9.50
2023-03-10T08:31:24.090Z,9.40
2023-03-10T08:33:55.560Z,9.30
2023-03-10T08:36:25.168Z,9.30
2023-03-10T08:38:54.597Z,9.20
2023-03-10T08:41:24.575Z,9.00
2023-03-10T08:43:55.769Z,9.30
2023-03-10T08:46:25.594Z,9.30
2023-03-10T08:48:54.347Z,9.40
2023-03-10T08:51:22.784Z,9.90
2023-03-10T08:53:52.064Z,10.50
2023-03-10T08:56:21.810Z,10.70
2023-03-10T08:58:49.734Z,10.50
2023-03-10T09:01:19.343Z,11.30
2023-03-10T09:03:47.674Z,11.00
2023-03-10T09:06:16.100Z,11.20
2023-03-10T09:08:44.462Z,12.10
2023-03-10T09:11:16.973Z,11.30
2023-03-10T09:13:44.879Z,11.90
2023-03-10T09:16:13.344Z,12.00
2023-03-10T09:18:42.813Z,11.30
2023-03-10T09:21:13.093Z,11.00
2023-03-10T09:23:43.139Z,11.10
2023-03-10T09:26:11.354Z,11.10
2023-03-10T09:28:39.317Z,10.90
2023-03-10T09:31:08.522Z,10.80
2023-03-10T09:33:36.776Z,10.40
2023-03-10T09:36:07.599Z,10.30
2023-03-10T09:38:36.173Z,10.30
2023-03-10T09:41:18.793Z,10.40
2023-03-10T09:43:55.110Z,10.30
2023-03-10T09:46:29.625Z,10.20
2023-03-10T09:49:03.835Z,10.50
2023-03-10T09:51:33.083Z,10.50
2023-03-10T09:54:14.855Z,10.20
2023-03-10T09:56:42.860Z,10.20
2023-03-10T09:59:17.369Z,10.20
2023-03-10T10:01:48.242Z,10.30
2023-03-10T10:04:20.806Z,10.40
2023-03-10T10:06:50.936Z,10.30
2023-03-10T10:09:27.189Z,10.10
2023-03-10T10:11:55.940Z,9.90
2023-03-10T10:14:30.338Z,9.80
2023-03-10T10:17:06.966Z,9.80
2023-03-10T10:19:37.071Z,9.60
2023-03-10T10:22:15.786Z,9.60
2023-03-10T10:24:58.942Z,9.50
2023-03-10T10:27:26.747Z,9.50
2023-03-10T10:29:54.668Z,9.50
2023-03-10T10:32:22.790Z,9.40
2023-03-10T10:34:50.677Z,9.30
2023-03-10T10:37:29.239Z,9.30
2023-03-10T10:39:58.782Z,9.30
2023-03-10T10:42:28.965Z,9.20
2023-03-10T10:44:58.691Z,9.10
2023-03-10T10:47:29.656Z,9.10
2023-03-10T10:50:11.119Z,9.10
2023-03-10T10:52:40.312Z,9.10
2023-03-10T10:55:27.130Z,9.20
2023-03-10T10:57:58.111Z,9.20
2023-03-10T11:00:30.328Z,9.20
2023-03-10T11:02:58.338Z,9.30
2023-03-10T11:05:33.672Z,9.30
2023-03-10T11:08:17.997Z,9.30
2023-03-10T11:10:52.205Z,9.40
2023-03-10T11:13:24.033Z,9.40
2023-03-10T11:15:59.090Z,9.30
2023-03-10T11:18:31.245Z,9.40
2023-03-10T11:21:04.715Z,9.50
2023-03-10T11:23:41.850Z,9.90
2023-03-10T11:26:21.130Z,10.40
2023-03-10T11:28:54.115Z,10.60
2023-03-10T11:31:34.137Z,10.40
2023-03-10T11:34:15.482Z,10.30
2023-03-10T11:36:56.259Z,10.90
2023-03-10T11:39:36.808Z,11.60
2023-03-10T11:42:10.238Z,11.70
2023-03-10T11:44:43.965Z,12.10
2023-03-10T11:47:20.680Z,12.40
2023-03-10T11:49:58.591Z,12.60
2023-03-10T11:52:29.445Z,12.60
2023-03-10T11:55:05.611Z,12.40
2023-03-10T11:57:40.800Z,12.00
2023-03-10T12:00:18.115Z,11.90
2023-03-10T12:02:58.735Z,12.10
2023-03-10T12:05:27.918Z,12.40
2023-03-10T12:08:01.446Z,13.10
2023-03-10T12:10:31.377Z,13.30
2023-03-10T12:13:00.700Z,13.40
2023-03-10T12:15:33.716Z,13.80
2023-03-10T12:18:01.664Z,13.80
2023-03-10T12:20:30.519Z,14.00
2023-03-10T12:23:00.235Z,13.70
2023-03-10T12:25:49.347Z,13.50
2023-03-10T12:28:26.700Z,13.40
2023-03-10T12:30:57.539Z,13.50
2023-03-10T12:33:51.372Z,13.30
2023-03-10T12:36:36.762Z,13.10
2023-03-10T12:39:26.416Z,13.10
2023-03-10T12:41:56.657Z,13.00
2023-03-10T12:44:50.654Z,12.60
2023-03-10T12:47:26.322Z,12.70
2023-03-10T12:49:58.235Z,12.60
2023-03-10T12:52:35.344Z,12.50
2023-03-10T12:55:08.641Z,12.40
2023-03-10T12:57:41.947Z,12.40
2023-03-10T13:00:25.421Z,12.40
2023-03-10T13:02:58.783Z,12.40
2023-03-10T13:05:29.284Z,12.30
2023-03-10T13:08:03.240Z,12.40
2023-03-10T13:10:34.046Z,12.50
2023-03-10T13:13:06.402Z,12.50
2023-03-10T13:15:35.836Z,12.40
2023-03-10T13:18:19.370Z,12.50
2023-03-10T13:20:48.035Z,12.50
2023-03-10T13:23:22.658Z,12.30
2023-03-10T13:25:55.778Z,12.10
2023-03-10T13:28:25.897Z,12.10
2023-03-10T13:31:06.985Z,11.90
2023-03-10T13:33:42.994Z,11.80
2023-03-10T13:36:32.892Z,11.80
2023-03-10T13:39:03.247Z,11.70
2023-03-10T13:41:40.551Z,11.70
2023-03-10T13:44:20.132Z,11.90
2023-03-10T13:46:50.646Z,11.80
2023-03-10T13:49:21.074Z,11.90
2023-03-10T13:51:56.666Z,11.90
2023-03-10T13:54:26.824Z,11.90
2023-03-10T13:56:57.999Z,11.80
2023-03-10T13:59:30.029Z,11.90
2023-03-10T14:01:59.627Z,11.80
2023-03-10T14:04:43.504Z,11.70
2023-03-10T14:07:13.181Z,11.70
2023-03-10T14:09:41.858Z,11.60
2023-03-10T14:12:10.376Z,11.60
2023-03-10T14:14:41.640Z,11.60
2023-03-10T14:17:10.841Z,11.50
2023-03-10T14:19:48.001Z,11.50
2023-03-10T14:22:40.575Z,11.40
2023-03-10T14:25:11.917Z,11.40
2023-03-10T14:27:42.274Z,11.40
2023-03-10T14:30:21.288Z,11.30
2023-03-10T14:32:49.281Z,11.40
2023-03-10T14:35:20.116Z,11.50
2023-03-10T14:37:48.038Z,11.50
2023-03-10T14:40:20.769Z,11.40
2023-03-10T14:42:50.420Z,11.40
2023-03-10T14:45:29.582Z,11.30
2023-03-10T14:47:59.154Z,11.40
2023-03-10T14:50:28.770Z,11.40
2023-03-10T14:52:56.759Z,11.40
2023-03-10T14:55:25.195Z,11.40
2023-03-10T14:57:58.149Z,11.30
2023-03-10T15:00:27.855Z,11.20
2023-03-10T15:02:55.883Z,11.20
2023-03-10T15:05:31.859Z,11.10
2023-03-10T15:08:06.499Z,11.00
2023-03-10T15:10:36.984Z,10.90
2023-03-10T15:13:06.252Z,11.00
2023-03-10T15:15:40.377Z,10.90
2023-03-10T15:18:10.596Z,10.90
2023-03-10T15:20:41.044Z,10.90
2023-03-10T15:23:08.871Z,10.90
2023-03-10T15:25:36.791Z,10.90
2023-03-10T15:28:05.011Z,10.90
2023-03-10T15:30:36.304Z,10.70
2023-03-10T15:33:05.439Z,10.70
2023-03-10T15:35:33.361Z,10.70
2023-03-10T15:38:01.401Z,10.70
2023-03-10T15:40:31.705Z,10.60
2023-03-10T15:43:00.331Z,10.50
2023-03-10T15:45:30.227Z,10.50
2023-03-10T15:48:00.190Z,10.40
2023-03-10T15:50:28.086Z,10.50
2023-03-10T15:52:57.188Z,10.40
2023-03-10T15:55:25.449Z,10.40
2023-03-10T15:57:53.838Z,10.30
2023-03-10T16:00:23.347Z,10.30
2023-03-10T16:02:51.714Z,10.20
2023-03-10T16:05:21.335Z,10.30
2023-03-10T16:07:49.331Z,9.80
2023-03-10T16:10:20.259Z,9.70
2023-03-10T16:12:48.547Z,9.70
2023-03-10T16:15:18.368Z,9.80
2023-03-10T16:17:48.528Z,9.80
2023-03-10T16:20:19.034Z,9.80
2023-03-10T16:22:48.218Z,9.80
2023-03-10T16:25:17.759Z,9.80
2023-03-10T16:27:46.916Z,9.70
2023-03-10T16:30:16.359Z,9.70
2023-03-10T16:32:45.220Z,9.60
2023-03-10T16:35:13.390Z,9.60
2023-03-10T16:37:41.231Z,9.60
2023-03-10T16:40:12.126Z,9.60
2023-03-10T16:42:43.141Z,9.60
2023-03-10T16:45:11.802Z,9.50
2023-03-10T16:47:40.962Z,9.50
2023-03-10T16:50:12.430Z,9.50
2023-03-10T16:52:42.131Z,9.50
2023-03-10T16:55:16.789Z,9.50
2023-03-10T16:57:45.102Z,9.40
2023-03-10T17:00:14.020Z,9.40
2023-03-10T17:02:41.805Z,9.40
2023-03-10T17:05:10.062Z,9.30
2023-03-10T17:07:46.453Z,9.30
2023-03-10T17:10:19.027Z,9.20
2023-03-10T17:12:46.875Z,9.00
2023-03-10T17:15:14.770Z,9.00
2023-03-10T17:17:42.718Z,9.20
2023-03-10T17:20:11.650Z,9.20
2023-03-10T17:22:39.420Z,9.20
2023-03-10T17:25:07.610Z,9.20
2023-03-10T17:27:36.751Z,9.20
2023-03-10T17:30:05.075Z,9.20
2023-03-10T17:32:32.869Z,9.20
2023-03-10T17:35:00.809Z,9.20
2023-03-10T17:37:28.589Z,9.20
2023-03-10T17:39:56.472Z,9.20
2023-03-10T17:42:25.186Z,9.20
2023-03-10T17:44:54.308Z,9.20
2023-03-10T17:47:22.183Z,9.20
2023-03-10T17:49:50.102Z,9.20
2023-03-10T17:52:17.915Z,9.10
2023-03-10T17:54:46.048Z,9.00
2023-03-10T17:57:13.825Z,9.10
2023-03-10T17:59:41.770Z,9.10
2023-03-10T18:02:12.590Z,9.00
2023-03-10T18:04:45.014Z,9.10
2023-03-10T18:07:12.900Z,9.00
2023-03-10T18:09:40.769Z,8.90
2023-03-10T18:12:08.897Z,8.80
2023-03-10T18:14:36.688Z,8.80
2023-03-10T18:17:04.512Z,8.80
2023-03-10T18:19:33.674Z,8.80
2023-03-10T18:22:05.424Z,8.80
2023-03-10T18:24:33.170Z,8.80
2023-03-10T18:27:01.670Z,8.80
2023-03-10T18:29:29.475Z,8.70
2023-03-10T18:31:57.260Z,8.70
2023-03-10T18:34:25.119Z,8.70
2023-03-10T18:36:54.707Z,8.80
2023-03-10T18:39:22.555Z,8.90
2023-03-10T18:41:50.369Z,8.80
2023-03-10T18:44:18.122Z,8.90
2023-03-10T18:46:46.010Z,8.90
2023-03-10T18:49:13.873Z,8.70
2023-03-10T18:51:41.615Z,8.60
2023-03-10T18:54:10.804Z,8.50
2023-03-10T18:56:38.621Z,8.20
2023-03-10T18:59:06.540Z,8.30
2023-03-10T19:01:34.396Z,8.20
2023-03-10T19:04:02.318Z,8.20
2023-03-10T19:06:31.627Z,8.20
2023-03-10T19:08:59.638Z,8.30
2023-03-10T19:11:35.302Z,8.20
2023-03-10T19:14:03.743Z,8.20
2023-03-10T19:16:31.885Z,8.20
2023-03-10T19:19:00.009Z,8.30
2023-03-10T19:21:28.293Z,8.10
2023-03-10T19:23:56.144Z,8.30
2023-03-10T19:26:23.974Z,8.30
2023-03-10T19:28:53.994Z,8.30
2023-03-10T19:31:21.834Z,8.20
2023-03-10T19:33:49.649Z,7.90
2023-03-10T19:36:17.565Z,8.10
2023-03-10T19:38:47.250Z,8.10
2023-03-10T19:41:16.603Z,8.20
2023-03-10T19:43:44.828Z,8.10
2023-03-10T19:46:15.629Z,8.10
2023-03-10T19:48:45.414Z,8.00
2023-03-10T19:51:20.883Z,8.10
2023-03-10T19:53:49.393Z,8.10
2023-03-10T19:56:18.758Z,8.10
2023-03-10T19:58:48.468Z,8.10
2023-03-10T20:01:20.344Z,8.00
2023-03-10T20:03:48.230Z,8.00
2023-03-10T20:06:16.050Z,8.00
2023-03-10T20:08:43.801Z,7.80
2023-03-10T20:11:14.523Z,7.90
2023-03-10T20:13:43.802Z,7.90
2023-03-10T20:16:13.920Z,7.80
2023-03-10T20:18:43.204Z,7.80
2023-03-10T20:21:12.055Z,7.80
2023-03-10T20:23:39.899Z,7.60
2023-03-10T20:26:10.257Z,7.60
2023-03-10T20:28:39.538Z,7.70
2023-03-10T20:31:07.524Z,7.70
2023-03-10T20:33:35.830Z,7.70
2023-03-10T20:36:08.511Z,7.70
2023-03-10T20:38:36.304Z,7.90
2023-03-10T20:41:04.178Z,7.60
2023-03-10T20:43:31.935Z,7.60
2023-03-10T20:45:59.772Z,7.60
2023-03-10T20:48:27.667Z,7.70
2023-03-10T20:50:56.109Z,7.70
2023-03-10T20:53:26.036Z,7.60
2023-03-10T20:55:53.811Z,7.50
2023-03-10T20:58:22.749Z,7.60
2023-03-10T21:00:50.850Z,7.50
2023-03-10T21:03:19.373Z,7.50
2023-03-10T21:05:47.212Z,7.40
2023-03-10T21:08:15.016Z,7.40
2023-03-10T21:10:46.750Z,7.10
2023-03-10T21:13:15.949Z,7.20
2023-03-10T21:15:43.702Z,7.20
2023-03-10T21:18:11.460Z,7.20
2023-03-10T21:20:39.197Z,7.20
2023-03-10T21:23:07.015Z,6.80
2023-03-10T21:25:34.795Z,7.10
2023-03-10T21:28:04.335Z,6.80
2023-03-10T21:30:33.987Z,7.00
2023-03-10T21:33:01.887Z,6.90
2023-03-10T21:35:34.015Z,7.10
2023-03-10T21:38:01.851Z,7.10
2023-03-10T21:40:30.199Z,6.80
2023-03-10T21:42:57.951Z,7.00
2023-03-10T21:45:30.178Z,7.00
2023-03-10T21:47:58.032Z,6.70
2023-03-10T21:50:25.990Z,6.30
2023-03-10T21:52:53.976Z,6.70
2023-03-10T21:55:25.517Z,6.70
2023-03-10T21:57:53.505Z,6.40
2023-03-10T22:00:23.235Z,6.60
2023-03-10T22:02:53.722Z,6.60
2023-03-10T22:05:22.590Z,6.80
2023-03-10T22:07:50.843Z,6.80
2023-03-10T22:10:19.187Z,6.80
2023-03-10T22:12:47.849Z,6.80
2023-03-10T22:15:23.300Z,6.80
2023-03-10T22:17:53.530Z,6.60
2023-03-10T22:20:23.825Z,6.60
2023-03-10T22:22:51.968Z,6.50
2023-03-10T22:25:20.489Z,6.40
2023-03-10T22:27:50.998Z,6.40
2023-03-10T22:30:19.351Z,6.50
2023-03-10T22:32:47.516Z,6.40
2023-03-10T22:35:17.558Z,6.30
2023-03-10T22:37:45.630Z,6.20
2023-03-10T22:40:16.207Z,6.30
2023-03-10T22:42:45.590Z,6.30
2023-03-10T22:45:18.955Z,5.80
2023-03-10T22:47:47.329Z,5.50
2023-03-10T22:50:18.627Z,6.10
2023-03-10T22:52:46.476Z,6.20
2023-03-10T22:55:15.747Z,6.20
2023-03-10T22:57:43.530Z,5.80
2023-03-10T23:02:53.788Z,5.90
2023-03-10T23:05:23.016Z,5.90
2023-03-10T23:07:51.282Z,6.10
2023-03-10T23:10:21.730Z,6.10
2023-03-10T23:12:50.484Z,5.90
2023-03-10T23:15:27.931Z,6.00
2023-03-10T23:17:56.498Z,5.90
2023-03-10T23:20:28.870Z,5.80
2023-03-10T23:22:58.353Z,5.70
2023-03-10T23:25:28.921Z,5.20
2023-03-10T23:27:56.859Z,5.30
2023-03-10T23:30:24.835Z,5.60
2023-03-10T23:32:53.528Z,5.00
2023-03-10T23:35:23.879Z,5.10
2023-03-10T23:37:53.026Z,5.50
2023-03-10T23:40:22.651Z,5.60
2023-03-10T23:42:50.694Z,5.90
2023-03-10T23:45:20.184Z,5.20
2023-03-10T23:47:49.460Z,4.90
2023-03-10T23:50:20.194Z,4.50
2023-03-10T23:52:48.359Z,5.40
2023-03-10T23:55:21.646Z,5.20
2023-03-10T23:57:49.458Z,5.20
